Rothbury, MI

5:35 AM EDT on March 28, 2015 (GMT -0400)
Tea Time Weather | | Change Station
CLOSE
Current Station
Personal Weather Station
Location: New Era, MI
Elevation: 763 ft
Nearby Weather Stations

Elev 763 ft 43.54 °N, 86.35 °W | Updated 8 seconds ago

Clear
Clear
7.3 °F
Feels Like 7 °F
N
0.0
Wind Variable Wind from North
Gusts 0.0 mph

Today
High -- | Low -- °F
--% Chance of Precip.
Yesterday
High -- | Low -- °F
Precip. -- in
7:34 AM 8:06 PM
First Quarter, 61% visible
Pressure 30.22 in
Visibility 10.0 miles
Clouds Clear
Windchill 7 °F
Dew Point -5 °F
Humidity 56%
Rainfall 0.00 in
Snow Depth Not available.
UV 0 out of 12
Pollen .70 out of 12
Air Quality Not available.
Flu Activity Not available.
METAR KFFX 280912Z AUTO 00000KT 10SM CLR M11/M17 A3022 RMK AO2 T11141172

More Conditions Fewer Conditions

Pressure 30.22 in
Visibility 10.0 miles
Clouds Clear
Windchill 7 °F
Dew Point -5 °F
Humidity 56%
Rainfall 0.00 in
Snow Depth Not available.
UV 0 out of 12
Pollen .70 out of 12
Air Quality Not available.
Flu Activity Not available.
METAR KFFX 280912Z AUTO 00000KT 10SM CLR M11/M17 A3022 RMK AO2 T11141172

More Conditions Fewer Conditions

10-Day Weather Forecast

Almanac

Astronomy

Mar. 28, 2015 Rise Set
Actual Time
Civil Twilight
Nautical Twilight
Astronomical Twilight
Moon
Length of Visible Light
Length of Day
Tomorrow will be .
, % of the Moon is Illuminated

Today's Extremes

State Highs State Lows

Community

WunderPhotos

Upload Photos

1,808,939 photos uploaded!

WunderBlogs® & News

Nearby

Air Quality

  Air Quality AQ Index Pollutant
Not available.

Snow Depth

Station Depth Elevation

Earthquake Activity

City Distance Mag. Time & Date
Minimum magnitude displayed is 2.5.

Coastal Water Temperatures

Place Temperature

Stations

Nearby Weather Stations

Station Location Temp. Windchill Dew Point Humidity Wind Precip. Elev Updated Type